AFL1301 URMM-UUEE
Flight info
| Callsign | AFL1301 |
|---|---|
| Flight time | N/A |
| Altitude | 35000 |
| Route | URILU5M URILU R227 BEMES DCT VULFI DCT TUVGI DCT EVZUN DCT ZIZAR DCT VAZLU DCT UZZID DCT NOKLI N72 WGD G481 OBABI T619 UMRAL P163 GOLRI L736 OLOPI OLOPI3W |
| Aircraft | A321/M-SDE3FGHIRWY/LB1 |
Departure
| Time | 2026-05-06 15:08 |
|---|---|
| Airport | Mineralnye Vody Airport (URMM) |
Arrival
| Time | N/A |
|---|---|
| Airport | Sheremetyevo International Airport (UUEE) |
| Time | Latitude | Longitude | Altitude | Speed | Heading |
|---|---|---|---|---|---|
| 2026-05-06 15:08 | 44.34226 | 42.97136 | 8026 ft | 261 kts | 107° |
| 2026-05-06 15:08 | 44.33625 | 42.99549 | 8697 ft | 264 kts | 110° |
| 2026-05-06 15:09 | 44.32967 | 43.01952 | 9362 ft | 266 kts | 111° |
| 2026-05-06 15:09 | 44.32311 | 43.04387 | 9998 ft | 269 kts | 110° |
| 2026-05-06 15:09 | 44.31675 | 43.06867 | 10637 ft | 272 kts | 109° |
| 2026-05-06 15:09 | 44.31061 | 43.09379 | 11265 ft | 275 kts | 108° |
| 2026-05-06 15:10 | 44.30463 | 43.11922 | 11883 ft | 278 kts | 108° |
| 2026-05-06 15:10 | 44.29867 | 43.14509 | 12502 ft | 281 kts | 107° |
| 2026-05-06 15:10 | 44.29273 | 43.17115 | 13121 ft | 283 kts | 107° |
| 2026-05-06 15:10 | 44.28679 | 43.19740 | 13736 ft | 285 kts | 107° |
| 2026-05-06 15:11 | 44.28089 | 43.22350 | 14319 ft | 287 kts | 107° |
| 2026-05-06 15:11 | 44.27483 | 43.25022 | 14907 ft | 290 kts | 107° |
| 2026-05-06 15:11 | 44.26852 | 43.27778 | 15093 ft | 309 kts | 108° |
| 2026-05-06 15:11 | 44.26172 | 43.30726 | 15228 ft | 328 kts | 108° |
| 2026-05-06 15:12 | 44.25449 | 43.33849 | 15360 ft | 347 kts | 108° |
| 2026-05-06 15:12 | 44.24687 | 43.37143 | 15488 ft | 365 kts | 108° |
| 2026-05-06 15:12 | 44.23886 | 43.40589 | 15615 ft | 382 kts | 108° |
| 2026-05-06 15:12 | 44.23058 | 43.44145 | 15732 ft | 397 kts | 108° |
| 2026-05-06 15:13 | 44.22188 | 43.47873 | 15896 ft | 410 kts | 108° |
| 2026-05-06 15:13 | 44.21303 | 43.51681 | 16308 ft | 415 kts | 108° |
| 2026-05-06 15:13 | 44.20408 | 43.55522 | 16791 ft | 418 kts | 108° |
| 2026-05-06 15:13 | 44.19507 | 43.59385 | 17275 ft | 420 kts | 108° |
| 2026-05-06 15:14 | 44.18596 | 43.63278 | 17755 ft | 423 kts | 108° |
| 2026-05-06 15:14 | 44.17681 | 43.67182 | 18223 ft | 425 kts | 108° |
| 2026-05-06 15:14 | 44.16818 | 43.71130 | 18667 ft | 428 kts | 103° |
| 2026-05-06 15:14 | 44.16300 | 43.75220 | 19089 ft | 430 kts | 98° |
| 2026-05-06 15:15 | 44.15845 | 43.79296 | 19511 ft | 433 kts | 99° |
| 2026-05-06 15:15 | 44.15377 | 43.83451 | 19922 ft | 436 kts | 99° |
| 2026-05-06 15:15 | 44.14904 | 43.87632 | 20338 ft | 438 kts | 99° |
| 2026-05-06 15:15 | 44.14425 | 43.91837 | 20734 ft | 441 kts | 99° |
| 2026-05-06 15:16 | 44.13936 | 43.96075 | 21124 ft | 444 kts | 99° |
| 2026-05-06 15:16 | 44.13445 | 44.00329 | 21507 ft | 446 kts | 99° |
| 2026-05-06 15:16 | 44.12954 | 44.04609 | 21881 ft | 449 kts | 99° |
| 2026-05-06 15:16 | 44.12457 | 44.08921 | 22250 ft | 451 kts | 99° |
| 2026-05-06 15:17 | 44.11961 | 44.13187 | 22614 ft | 454 kts | 99° |
| 2026-05-06 15:17 | 44.11450 | 44.17552 | 22979 ft | 456 kts | 99° |
| 2026-05-06 15:17 | 44.10936 | 44.21912 | 23335 ft | 458 kts | 99° |
| 2026-05-06 15:17 | 44.10418 | 44.26306 | 23682 ft | 461 kts | 99° |
| 2026-05-06 15:18 | 44.09901 | 44.30716 | 24019 ft | 463 kts | 99° |
| 2026-05-06 15:18 | 44.09389 | 44.35097 | 24337 ft | 465 kts | 99° |
| 2026-05-06 15:18 | 44.08866 | 44.39543 | 24662 ft | 467 kts | 99° |
| 2026-05-06 15:18 | 44.08340 | 44.43998 | 24984 ft | 468 kts | 99° |
| 2026-05-06 15:19 | 44.07808 | 44.48468 | 25318 ft | 470 kts | 99° |
| 2026-05-06 15:19 | 44.07270 | 44.52962 | 25661 ft | 471 kts | 99° |
| 2026-05-06 15:19 | 44.06728 | 44.57469 | 25988 ft | 473 kts | 99° |
| 2026-05-06 15:19 | 44.06199 | 44.61989 | 26294 ft | 474 kts | 99° |
| 2026-05-06 15:20 | 44.05711 | 44.66525 | 26651 ft | 474 kts | 98° |
| 2026-05-06 15:20 | 44.05254 | 44.71052 | 27072 ft | 472 kts | 98° |
| 2026-05-06 15:20 | 44.04812 | 44.75562 | 27483 ft | 470 kts | 97° |
| 2026-05-06 15:20 | 44.04370 | 44.80054 | 27881 ft | 468 kts | 98° |
| 2026-05-06 15:21 | 44.03918 | 44.84531 | 28266 ft | 467 kts | 98° |
| 2026-05-06 15:21 | 44.03458 | 44.88992 | 28649 ft | 466 kts | 98° |
| 2026-05-06 15:21 | 44.02997 | 44.93378 | 29014 ft | 464 kts | 98° |
| 2026-05-06 15:21 | 44.02524 | 44.97808 | 29372 ft | 463 kts | 98° |
| 2026-05-06 15:22 | 44.02048 | 45.02223 | 29724 ft | 462 kts | 98° |
| 2026-05-06 15:22 | 44.01573 | 45.06628 | 30072 ft | 461 kts | 98° |
| 2026-05-06 15:22 | 44.01104 | 45.11024 | 30410 ft | 460 kts | 98° |
| 2026-05-06 15:22 | 44.00632 | 45.15413 | 30724 ft | 459 kts | 98° |
| 2026-05-06 15:23 | 44.00156 | 45.19805 | 31020 ft | 459 kts | 98° |
| 2026-05-06 15:23 | 43.99678 | 45.24194 | 31299 ft | 460 kts | 98° |
| 2026-05-06 15:23 | 43.99194 | 45.28595 | 31542 ft | 462 kts | 98° |
| 2026-05-06 15:23 | 43.98706 | 45.33009 | 31780 ft | 463 kts | 99° |
| 2026-05-06 15:24 | 43.98219 | 45.37379 | 32041 ft | 463 kts | 99° |
| 2026-05-06 15:24 | 43.97723 | 45.41800 | 32310 ft | 464 kts | 99° |
| 2026-05-06 15:24 | 43.97220 | 45.46231 | 32577 ft | 464 kts | 99° |
| 2026-05-06 15:24 | 43.96717 | 45.50653 | 32842 ft | 464 kts | 99° |
| 2026-05-06 15:25 | 43.96216 | 45.55077 | 33095 ft | 464 kts | 99° |
| 2026-05-06 15:25 | 43.95715 | 45.59513 | 33349 ft | 464 kts | 99° |
| 2026-05-06 15:25 | 43.95217 | 45.63893 | 33595 ft | 465 kts | 99° |
| 2026-05-06 15:25 | 43.94714 | 45.68313 | 33840 ft | 464 kts | 99° |
| 2026-05-06 15:26 | 43.94209 | 45.72742 | 34074 ft | 465 kts | 99° |
| 2026-05-06 15:26 | 43.93703 | 45.77170 | 34311 ft | 465 kts | 99° |
| 2026-05-06 15:26 | 43.93190 | 45.81612 | 34533 ft | 465 kts | 99° |
| 2026-05-06 15:26 | 43.92676 | 45.86040 | 34759 ft | 465 kts | 98° |
| 2026-05-06 15:27 | 43.92425 | 45.90522 | 34956 ft | 466 kts | 90° |
| 2026-05-06 15:27 | 43.92978 | 45.99454 | 35027 ft | 467 kts | 84° |
| 2026-05-06 15:28 | 43.93641 | 46.08413 | 35026 ft | 467 kts | 84° |
| 2026-05-06 15:28 | 43.94285 | 46.17369 | 35014 ft | 467 kts | 85° |
| 2026-05-06 15:29 | 43.94928 | 46.26350 | 35021 ft | 467 kts | 85° |
| 2026-05-06 15:29 | 43.95557 | 46.35257 | 35019 ft | 468 kts | 85° |
| 2026-05-06 15:30 | 43.96174 | 46.44256 | 35015 ft | 468 kts | 85° |
| 2026-05-06 15:30 | 43.96783 | 46.53218 | 35015 ft | 469 kts | 85° |
| 2026-05-06 15:31 | 43.97403 | 46.62235 | 35006 ft | 469 kts | 85° |
| 2026-05-06 15:31 | 43.98023 | 46.71273 | 35005 ft | 470 kts | 85° |
| 2026-05-06 15:32 | 43.98924 | 46.84854 | 35008 ft | 471 kts | 85° |
| 2026-05-06 15:32 | 43.99511 | 46.93875 | 35005 ft | 472 kts | 85° |
| 2026-05-06 15:33 | 44.00099 | 47.02969 | 35001 ft | 472 kts | 86° |
| 2026-05-06 15:33 | 44.00679 | 47.12042 | 34994 ft | 469 kts | 86° |
| 2026-05-06 15:34 | 44.01236 | 47.21014 | 34999 ft | 469 kts | 86° |
| 2026-05-06 15:34 | 44.01789 | 47.30047 | 35016 ft | 469 kts | 86° |
| 2026-05-06 15:35 | 44.02067 | 47.34557 | 35227 ft | 470 kts | 86° |
| 2026-05-06 15:35 | 44.02370 | 47.39074 | 35445 ft | 470 kts | 82° |
| 2026-05-06 15:35 | 44.03206 | 47.43471 | 35643 ft | 471 kts | 67° |
| 2026-05-06 15:35 | 44.04815 | 47.47421 | 35795 ft | 473 kts | 51° |
| 2026-05-06 15:36 | 44.07137 | 47.50652 | 35954 ft | 473 kts | 36° |
| 2026-05-06 15:36 | 44.09994 | 47.52921 | 35998 ft | 473 kts | 20° |
| 2026-05-06 15:36 | 44.13124 | 47.54052 | 35984 ft | 471 kts | 4° |
| 2026-05-06 15:36 | 44.16397 | 47.54217 | 35990 ft | 471 kts | 359° |
| 2026-05-06 15:37 | 44.22982 | 47.54307 | 35990 ft | 472 kts | 359° |
| 2026-05-06 15:37 | 44.29563 | 47.54436 | 35986 ft | 472 kts | 360° |
| 2026-05-06 15:38 | 44.36135 | 47.54570 | 36000 ft | 472 kts | 360° |
| 2026-05-06 15:38 | 44.42686 | 47.54688 | 36005 ft | 472 kts | 360° |
| 2026-05-06 15:39 | 44.48154 | 47.54775 | 36004 ft | 473 kts | 359° |
| 2026-05-06 15:39 | 44.55810 | 47.54903 | 36004 ft | 473 kts | 360° |
| 2026-05-06 15:40 | 44.61315 | 47.55014 | 36005 ft | 472 kts | 360° |
| 2026-05-06 15:40 | 44.67894 | 47.55137 | 35998 ft | 472 kts | 360° |
| 2026-05-06 15:41 | 44.74418 | 47.55255 | 35998 ft | 472 kts | 360° |
| 2026-05-06 15:41 | 44.80991 | 47.55373 | 35996 ft | 472 kts | 0° |
| 2026-05-06 15:42 | 44.87561 | 47.55498 | 35999 ft | 472 kts | 0° |
| 2026-05-06 15:42 | 44.94113 | 47.55629 | 35992 ft | 471 kts | 0° |
| 2026-05-06 15:43 | 45.00630 | 47.55743 | 35984 ft | 471 kts | 0° |
| 2026-05-06 15:43 | 45.07185 | 47.55852 | 35979 ft | 471 kts | 0° |
| 2026-05-06 15:44 | 45.13738 | 47.55971 | 35976 ft | 470 kts | 0° |
| 2026-05-06 15:44 | 45.20242 | 47.56098 | 35971 ft | 470 kts | 0° |
| 2026-05-06 15:45 | 45.26779 | 47.56224 | 35967 ft | 470 kts | 0° |
| 2026-05-06 15:45 | 45.33311 | 47.56339 | 35962 ft | 469 kts | 0° |
| 2026-05-06 15:46 | 45.39852 | 47.56457 | 35958 ft | 469 kts | 0° |
| 2026-05-06 15:46 | 45.46377 | 47.56590 | 35952 ft | 469 kts | 1° |
| 2026-05-06 15:47 | 45.52864 | 47.56717 | 35949 ft | 469 kts | 1° |
| 2026-05-06 15:47 | 45.59384 | 47.56834 | 35945 ft | 469 kts | 0° |
| 2026-05-06 15:48 | 45.65909 | 47.56960 | 35941 ft | 468 kts | 1° |
| 2026-05-06 15:48 | 45.72429 | 47.57081 | 35939 ft | 468 kts | 0° |
| 2026-05-06 15:49 | 45.78911 | 47.57189 | 35934 ft | 468 kts | 1° |
| 2026-05-06 15:49 | 45.85436 | 47.57317 | 35928 ft | 468 kts | 1° |
| 2026-05-06 15:50 | 45.91950 | 47.57445 | 35926 ft | 468 kts | 1° |
| 2026-05-06 15:50 | 45.98462 | 47.57572 | 35924 ft | 468 kts | 1° |
| 2026-05-06 15:51 | 46.04931 | 47.57696 | 35926 ft | 468 kts | 1° |
| 2026-05-06 15:51 | 46.11441 | 47.57821 | 35919 ft | 468 kts | 1° |
| 2026-05-06 15:52 | 46.17943 | 47.57783 | 35912 ft | 467 kts | 353° |
| 2026-05-06 15:52 | 46.21126 | 47.56845 | 35912 ft | 466 kts | 341° |
| 2026-05-06 15:52 | 46.24109 | 47.55034 | 35910 ft | 465 kts | 330° |
| 2026-05-06 15:53 | 46.26801 | 47.52442 | 35908 ft | 464 kts | 319° |
| 2026-05-06 15:53 | 46.29094 | 47.49175 | 35906 ft | 463 kts | 308° |
| 2026-05-06 15:53 | 46.32667 | 47.41508 | 35903 ft | 463 kts | 302° |
| 2026-05-06 15:54 | 46.36157 | 47.33664 | 35901 ft | 463 kts | 302° |
| 2026-05-06 15:54 | 46.39643 | 47.25814 | 35905 ft | 463 kts | 302° |
| 2026-05-06 15:55 | 46.43130 | 47.17946 | 35910 ft | 463 kts | 302° |
| 2026-05-06 15:55 | 46.46580 | 47.10137 | 35912 ft | 463 kts | 302° |
| 2026-05-06 15:56 | 46.50053 | 47.02251 | 35913 ft | 463 kts | 302° |
| 2026-05-06 15:56 | 46.53513 | 46.94353 | 35920 ft | 463 kts | 302° |
| 2026-05-06 15:57 | 46.56949 | 46.86504 | 35924 ft | 463 kts | 302° |
| 2026-05-06 15:57 | 46.60400 | 46.78606 | 35921 ft | 463 kts | 302° |
| 2026-05-06 15:58 | 46.63844 | 46.70698 | 35924 ft | 462 kts | 302° |
| 2026-05-06 15:58 | 46.67285 | 46.62763 | 35928 ft | 462 kts | 302° |
| 2026-05-06 15:59 | 46.70689 | 46.54890 | 35930 ft | 462 kts | 302° |
| 2026-05-06 15:59 | 46.74110 | 46.46950 | 35931 ft | 462 kts | 302° |
| 2026-05-06 16:00 | 46.77533 | 46.39007 | 35934 ft | 462 kts | 302° |
| 2026-05-06 16:00 | 46.80962 | 46.31054 | 35938 ft | 462 kts | 302° |
| 2026-05-06 16:01 | 46.84352 | 46.23143 | 35940 ft | 462 kts | 302° |
| 2026-05-06 16:01 | 46.87748 | 46.15156 | 35944 ft | 462 kts | 302° |
| 2026-05-06 16:02 | 46.91346 | 46.07398 | 35944 ft | 462 kts | 312° |
| 2026-05-06 16:02 | 46.96282 | 46.01441 | 35946 ft | 461 kts | 330° |
| 2026-05-06 16:03 | 47.02029 | 45.97344 | 35953 ft | 461 kts | 335° |
| 2026-05-06 16:03 | 47.07821 | 45.93299 | 35958 ft | 461 kts | 335° |
| 2026-05-06 16:04 | 47.13612 | 45.89223 | 35961 ft | 461 kts | 334° |
| 2026-05-06 16:04 | 47.19396 | 45.85153 | 35961 ft | 461 kts | 335° |
| 2026-05-06 16:05 | 47.25184 | 45.81086 | 35961 ft | 460 kts | 335° |
| 2026-05-06 16:05 | 47.30921 | 45.77030 | 35961 ft | 460 kts | 334° |
| 2026-05-06 16:06 | 47.36694 | 45.72935 | 35960 ft | 460 kts | 334° |
| 2026-05-06 16:06 | 47.42481 | 45.68821 | 35961 ft | 460 kts | 335° |
| 2026-05-06 16:07 | 47.48221 | 45.64753 | 35961 ft | 460 kts | 334° |
| 2026-05-06 16:07 | 47.53990 | 45.60652 | 35961 ft | 460 kts | 334° |
| 2026-05-06 16:08 | 47.59756 | 45.56532 | 35961 ft | 460 kts | 334° |
| 2026-05-06 16:08 | 47.65528 | 45.52384 | 35959 ft | 460 kts | 334° |
| 2026-05-06 16:09 | 47.71251 | 45.48254 | 35959 ft | 460 kts | 334° |
| 2026-05-06 16:09 | 47.77016 | 45.44103 | 35959 ft | 460 kts | 334° |
| 2026-05-06 16:10 | 47.82290 | 45.38766 | 35957 ft | 460 kts | 317° |
| 2026-05-06 16:10 | 47.87006 | 45.32379 | 35958 ft | 460 kts | 318° |
| 2026-05-06 16:11 | 47.91748 | 45.25963 | 35959 ft | 460 kts | 318° |
| 2026-05-06 16:11 | 47.96487 | 45.19528 | 35959 ft | 461 kts | 318° |
| 2026-05-06 16:12 | 48.01220 | 45.13076 | 35960 ft | 461 kts | 318° |
| 2026-05-06 16:12 | 48.06350 | 45.07466 | 35964 ft | 460 kts | 327° |
| 2026-05-06 16:13 | 48.11684 | 45.02135 | 35960 ft | 460 kts | 326° |
| 2026-05-06 16:13 | 48.16997 | 44.96803 | 35959 ft | 460 kts | 327° |
| 2026-05-06 16:14 | 48.22278 | 44.91492 | 35960 ft | 459 kts | 326° |
| 2026-05-06 16:14 | 48.27583 | 44.86121 | 35961 ft | 460 kts | 326° |
| 2026-05-06 16:15 | 48.32879 | 44.80737 | 35961 ft | 459 kts | 326° |
| 2026-05-06 16:15 | 48.38173 | 44.75353 | 35961 ft | 459 kts | 326° |
| 2026-05-06 16:16 | 48.43463 | 44.69973 | 35959 ft | 459 kts | 326° |
| 2026-05-06 16:16 | 48.48718 | 44.64614 | 35958 ft | 459 kts | 326° |
| 2026-05-06 16:17 | 48.54006 | 44.59197 | 35957 ft | 459 kts | 326° |
| 2026-05-06 16:17 | 48.59290 | 44.53764 | 35959 ft | 459 kts | 326° |
| 2026-05-06 16:18 | 48.64545 | 44.48355 | 35960 ft | 459 kts | 326° |
| 2026-05-06 16:18 | 48.69823 | 44.42904 | 35962 ft | 459 kts | 326° |
| 2026-05-06 16:19 | 48.75104 | 44.37436 | 35962 ft | 459 kts | 326° |
| 2026-05-06 16:19 | 48.80663 | 44.32886 | 35960 ft | 458 kts | 340° |
| 2026-05-06 16:20 | 48.86636 | 44.29531 | 35961 ft | 458 kts | 340° |
| 2026-05-06 16:20 | 48.92605 | 44.26151 | 35961 ft | 458 kts | 340° |
| 2026-05-06 16:21 | 48.98545 | 44.22768 | 35962 ft | 458 kts | 340° |
| 2026-05-06 16:21 | 49.04514 | 44.19377 | 35962 ft | 458 kts | 340° |
| 2026-05-06 16:22 | 49.10481 | 44.15977 | 35962 ft | 458 kts | 340° |
| 2026-05-06 16:22 | 49.16443 | 44.12571 | 35962 ft | 457 kts | 340° |
| 2026-05-06 16:23 | 49.22408 | 44.09150 | 35961 ft | 457 kts | 340° |
| 2026-05-06 16:23 | 49.28326 | 44.05748 | 35961 ft | 457 kts | 340° |
| 2026-05-06 16:24 | 49.34292 | 44.02311 | 35961 ft | 457 kts | 340° |
| 2026-05-06 16:24 | 49.40245 | 43.98874 | 35961 ft | 457 kts | 340° |
| 2026-05-06 16:25 | 49.46186 | 43.95435 | 35963 ft | 456 kts | 340° |
| 2026-05-06 16:25 | 49.52070 | 43.91876 | 35960 ft | 457 kts | 334° |
| 2026-05-06 16:26 | 49.57656 | 43.87216 | 35961 ft | 457 kts | 332° |
| 2026-05-06 16:26 | 49.63246 | 43.82530 | 35961 ft | 457 kts | 332° |
| 2026-05-06 16:27 | 49.68839 | 43.77845 | 35961 ft | 457 kts | 332° |
| 2026-05-06 16:27 | 49.74390 | 43.73178 | 35963 ft | 457 kts | 332° |
| 2026-05-06 16:28 | 49.79978 | 43.68455 | 35965 ft | 457 kts | 332° |
| 2026-05-06 16:28 | 49.85570 | 43.63718 | 35964 ft | 457 kts | 332° |
| 2026-05-06 16:29 | 49.91144 | 43.58976 | 35963 ft | 457 kts | 332° |
| 2026-05-06 16:29 | 49.96693 | 43.54252 | 35959 ft | 457 kts | 332° |
| 2026-05-06 16:30 | 50.01357 | 43.50277 | 35957 ft | 457 kts | 332° |
| 2026-05-06 16:30 | 50.07828 | 43.44749 | 35956 ft | 456 kts | 331° |
| 2026-05-06 16:31 | 50.13398 | 43.39974 | 35955 ft | 456 kts | 332° |
| 2026-05-06 16:31 | 50.18925 | 43.35217 | 35954 ft | 456 kts | 331° |
| 2026-05-06 16:32 | 50.24487 | 43.30422 | 35954 ft | 456 kts | 331° |
| 2026-05-06 16:32 | 50.30043 | 43.25615 | 35953 ft | 456 kts | 331° |
| 2026-05-06 16:33 | 50.35559 | 43.20820 | 35954 ft | 455 kts | 331° |
| 2026-05-06 16:34 | 50.43874 | 43.13596 | 35954 ft | 455 kts | 331° |
| 2026-05-06 16:34 | 50.48479 | 43.09584 | 35950 ft | 455 kts | 331° |